Emerald — 9HA2135 — position and weather

sailwx.info

Track history (hours):
 
Tides and Currents Weather Stations Pressure Air Temp Water Temp Dewpoint Dewpoint Depression Visibility Wind Speed Wind Dir Waves Ship Positions

Emerald

Last reported at 2018-Feb-17 10:37 UTC. Time now 2018-Feb-25 10:11 UTC.
Position N 37°48' E 025°44'.

Length 182 m; draft 11.5 m.

Type: Ship (hazmat cat A). MMSI: 247988247.

Date/timePositionNaut miles runAvg speedWind from/ knotsBaromVisibWave heightAir tempDewpointWater temp
2018-Feb-17 10:37N 37°48' E 025°44'112.3
2018-Feb-17 10:30N 37°47' E 025°44'612.5
2018-Feb-17 10:00N 37°41' E 025°45'612.0
2018-Feb-17 09:29N 37°35' E 025°47'612.1
2018-Feb-17 09:00N 37°30' E 025°50'612.0
2018-Feb-17 08:30N 37°24' E 025°54'  
2018-Feb-10 03:07N 32°56' E 034°36'112.9
2018-Feb-10 03:00N 32°57' E 034°34'612.8
2018-Feb-10 02:30N 32°58' E 034°27'712.8
2018-Feb-10 01:59N 32°59' E 034°19'612.9
2018-Feb-10 01:30N 32°60' E 034°12'713.2
2018-Feb-10 01:00N 33°01' E 034°04'713.0
2018-Feb-10 00:28N 33°03' E 033°56'612.9
2018-Feb-10 00:00N 33°06' E 033°50'713.2
2018-Feb-09 23:30N 33°09' E 033°43'713.1
2018-Feb-09 23:00N 33°12' E 033°36'312.7
2018-Feb-09 22:46N 33°14' E 033°32'46310.2
2018-Feb-08 01:17N 37°42' E 025°49'  
Track history (hours):
 
Tides and Currents Weather Stations Pressure Air Temp Water Temp Dewpoint Dewpoint Depression Visibility Wind Speed Wind Dir Waves Ship Positions

Emerald

Last reported at 2018-Feb-17 10:37 UTC. Time now 2018-Feb-25 10:11 UTC.
Position N 37°48' E 025°44'.

Length 182 m; draft 11.5 m.

Type: Ship (hazmat cat A). MMSI: 247988247.

Date/timePositionNaut miles runAvg speedWind from/ knotsBaromVisibWave heightAir tempDewpointWater temp
2018-Feb-17 10:37N 37°48' E 025°44'112.3
2018-Feb-17 10:30N 37°47' E 025°44'612.5
2018-Feb-17 10:00N 37°41' E 025°45'612.0
2018-Feb-17 09:29N 37°35' E 025°47'612.1
2018-Feb-17 09:00N 37°30' E 025°50'612.0
2018-Feb-17 08:30N 37°24' E 025°54'  
2018-Feb-10 03:07N 32°56' E 034°36'112.9
2018-Feb-10 03:00N 32°57' E 034°34'612.8
2018-Feb-10 02:30N 32°58' E 034°27'712.8
2018-Feb-10 01:59N 32°59' E 034°19'612.9
2018-Feb-10 01:30N 32°60' E 034°12'713.2
2018-Feb-10 01:00N 33°01' E 034°04'713.0
2018-Feb-10 00:28N 33°03' E 033°56'612.9
2018-Feb-10 00:00N 33°06' E 033°50'713.2
2018-Feb-09 23:30N 33°09' E 033°43'713.1
2018-Feb-09 23:00N 33°12' E 033°36'312.7
2018-Feb-09 22:46N 33°14' E 033°32'46310.2
2018-Feb-08 01:17N 37°42' E 025°49'  

Dump ship's entire track history